Ana Sayfa
METAR-TAF:

METAR-TAF

Havaalanları :

Nosy Be, Madagaskar

Enlem: 13-19S, Boylam: 048-19E, yükseklik: 10 m

Güncel hava durumu gözlemi

Rapor saat 13:00 UTC de 33 dakika önce yapıldı.
Rüzgar kuzeybatıdan 2 kt
Sıcaklık 32°C
Nem 59%
Basınç 1012 hPa
Görüş mesafesi 10 km veya daha fazla
2000 ft yükseklikte az bulutlu

METAR: FMNN 241300Z 31002KT 9999 FEW020 32/23 Q1012

Saat: 16:33 (13:33 UTC)

Tahmin

Rapor saat 11:00 UTC de 2 saat ve 33 dakika önce yapıldı.
Ayın 24'si saat 12 UTC'den ayın 25'si saat 12 UTC'ye kadar geçerli Tahmin
Rüzgar batıdan 10 kt
Görüş mesafesi 10 km veya daha fazla
2000 ft yükseklikte parçalı bulutlu
Dönüşüyor
ayın 25'si saat 00 UTC'den ayın 25'si saat 03 UTC'ye kadar
Rüzgar doğudan 4 kt

TAF: FMNN 241100Z 2412/2512 26010KT 9999 SCT020 BECMG 2500/2503 08004KT

4.000'den fazla havaalanı için hava durumu gözlemleri ve tahminleri (METAR ve TAF raporları).

Kullanılabilir istasyonlar harita üzerinde sarı ve kırmızı noktalarla gösterilir.

İstasyonun adını görmek için fareyi noktanın üzerinde gezdirin.

Sonrasında hava gözlem ve tahminlerini görmek için tıklayın.

Haritayı değiştirmek için: yaklaştırmak için siyah artı işaretli yeşil düğmeye ve uzaklaştırmak için de eksi işaretli düğmeye hızla tıklayın; bitişik haritalar için yeşil okları kullanın.


METAR-TAF: